< Typhoon 202209 2022 Season Typhoon 202211 >
Typhoon 202210 (TOKAGE)
General InformationTrack Information on Google MapsDetailed Wind InformationForecast History on Google MapsAccess Analytics MapList of All Images || NewsDisaster Info.JMA Disaster Info. XMLWeblogTrackbackTyphoon FrontTwiphoonTyphoon Now!Typhoon ImaginationResourceGoogle EarthGE AnimationAtom FeedGeoJSON
Detalied Best Track (Time Zone = UTC)
Year Month Day Hour Lat. Long. Pressure (hPa) Wind (kt) Class Image Chart
2022 8 21 18 22.6 151.1 1002 30 2 Image Chart
2022 8 21 21 22.8 151.1 1004 30 2 Image Chart
2022 8 22 00 23.3 151.4 1004 30 2 Image Chart
2022 8 22 03 24.5 151.6 1002 35 3 Image Chart
2022 8 22 06 25.1 151.6 1000 35 3 Image Chart
2022 8 22 09 25.6 151.6 998 40 3 Image Chart
2022 8 22 12 26.2 151.5 994 45 3 Image Chart
2022 8 22 15 26.5 151.6 994 45 3 Image Chart
2022 8 22 18 27.5 151.0 992 50 4 Image Chart
2022 8 22 21 27.9 150.9 992 50 4 Image Chart
2022 8 23 00 28.6 150.5 990 55 4 Image Chart
2022 8 23 03 29.4 150.4 990 55 4 Image Chart
2022 8 23 06 30.1 149.9 985 60 4 Image Chart
2022 8 23 09 30.8 149.5 985 60 4 Image Chart
2022 8 23 12 31.5 149.1 975 70 5 Image Chart
2022 8 23 15 32.1 148.9 975 70 5 Image Chart
2022 8 23 18 32.9 148.6 970 75 5 Image Chart
2022 8 23 21 33.5 148.6 970 75 5 Image Chart
2022 8 24 00 34.1 148.6 970 75 5 Image Chart
2022 8 24 03 34.7 148.7 970 75 5 Image Chart
2022 8 24 06 35.1 149.0 970 75 5 Image Chart
2022 8 24 09 35.7 149.3 970 75 5 Image Chart
2022 8 24 12 36.2 149.5 970 75 5 Image Chart
2022 8 24 15 36.6 149.8 970 75 5 Image Chart
2022 8 24 18 37.2 150.3 970 75 5 Image Chart
2022 8 24 21 37.8 150.8 970 75 5 Image Chart
2022 8 25 00 38.4 151.3 975 70 5 Image Chart
2022 8 25 03 39.3 151.9 980 65 5 Image Chart
2022 8 25 06 40.5 152.3 990 55 4 Image Chart
2022 8 25 09 41.6 153.8 990 55 4 Image Chart
2022 8 25 12 42.9 155.1 992 50 4 Image Chart
2022 8 25 15 43.4 156.3 992 50 4 Image Chart
2022 8 25 18 45.0 158.0 996 45 6 Image Chart
Japan Meteorological Agency Best Track Data | Correction Date : 2022-08-25
< Typhoon 202209 2022 Season Typhoon 202211 >

Help